sensor_id;sensor_type;location;lat;lon;timestamp;P1;durP1;ratioP1;P2;durP2;ratioP2
57325;SDS011;43161;50.950;18.224;2024-01-11T00:00:13;408.20;;;134.20;;
57325;SDS011;43161;50.950;18.224;2024-01-11T00:02:39;413.20;;;127.30;;
57325;SDS011;43161;50.950;18.224;2024-01-11T00:05:05;399.60;;;125.90;;
57325;SDS011;43161;50.950;18.224;2024-01-11T00:07:31;399.80;;;138.00;;
57325;SDS011;43161;50.950;18.224;2024-01-11T00:09:57;395.80;;;131.30;;
57325;SDS011;43161;50.950;18.224;2024-01-11T00:12:23;381.20;;;127.40;;
57325;SDS011;43161;50.950;18.224;2024-01-11T00:14:48;359.10;;;119.60;;
57325;SDS011;43161;50.950;18.224;2024-01-11T00:17:14;321.00;;;99.00;;
57325;SDS011;43161;50.950;18.224;2024-01-11T00:19:41;354.80;;;109.80;;
57325;SDS011;43161;50.950;18.224;2024-01-11T00:22:07;360.80;;;125.90;;
57325;SDS011;43161;50.950;18.224;2024-01-11T00:24:32;352.90;;;116.00;;
57325;SDS011;43161;50.950;18.224;2024-01-11T00:26:58;347.80;;;124.20;;
57325;SDS011;43161;50.950;18.224;2024-01-11T00:29:23;332.10;;;116.80;;
57325;SDS011;43161;50.950;18.224;2024-01-11T00:31:49;362.10;;;122.80;;
57325;SDS011;43161;50.950;18.224;2024-01-11T00:34:14;339.10;;;117.00;;
57325;SDS011;43161;50.950;18.224;2024-01-11T00:36:40;341.50;;;114.40;;
57325;SDS011;43161;50.950;18.224;2024-01-11T00:39:06;348.60;;;120.80;;
57325;SDS011;43161;50.950;18.224;2024-01-11T00:41:31;382.60;;;142.60;;
57325;SDS011;43161;50.950;18.224;2024-01-11T00:43:57;372.00;;;125.80;;
57325;SDS011;43161;50.950;18.224;2024-01-11T00:46:22;324.20;;;103.70;;
57325;SDS011;43161;50.950;18.224;2024-01-11T00:48:48;319.90;;;100.00;;
57325;SDS011;43161;50.950;18.224;2024-01-11T00:51:14;346.80;;;110.20;;
57325;SDS011;43161;50.950;18.224;2024-01-11T00:53:40;319.00;;;99.70;;
57325;SDS011;43161;50.950;18.224;2024-01-11T00:56:06;340.90;;;105.30;;
57325;SDS011;43161;50.950;18.224;2024-01-11T00:58:40;341.20;;;111.00;;
57325;SDS011;43161;50.950;18.224;2024-01-11T01:01:08;318.90;;;98.50;;
57325;SDS011;43161;50.950;18.224;2024-01-11T01:03:34;363.90;;;112.50;;
57325;SDS011;43161;50.950;18.224;2024-01-11T01:06:00;348.70;;;120.10;;
57325;SDS011;43161;50.950;18.224;2024-01-11T01:08:27;336.40;;;107.90;;
57325;SDS011;43161;50.950;18.224;2024-01-11T01:10:52;358.40;;;114.20;;
57325;SDS011;43161;50.950;18.224;2024-01-11T01:13:18;353.80;;;119.40;;
57325;SDS011;43161;50.950;18.224;2024-01-11T01:15:43;342.50;;;110.40;;
57325;SDS011;43161;50.950;18.224;2024-01-11T01:18:09;328.60;;;102.90;;
57325;SDS011;43161;50.950;18.224;2024-01-11T01:20:35;335.10;;;99.40;;
57325;SDS011;43161;50.950;18.224;2024-01-11T01:23:01;325.40;;;102.70;;
57325;SDS011;43161;50.950;18.224;2024-01-11T01:25:27;361.80;;;116.40;;
57325;SDS011;43161;50.950;18.224;2024-01-11T01:27:53;334.80;;;103.20;;
57325;SDS011;43161;50.950;18.224;2024-01-11T01:30:19;350.40;;;106.60;;
57325;SDS011;43161;50.950;18.224;2024-01-11T01:32:45;337.50;;;101.40;;
57325;SDS011;43161;50.950;18.224;2024-01-11T01:35:11;339.00;;;106.80;;
57325;SDS011;43161;50.950;18.224;2024-01-11T01:37:36;327.90;;;105.70;;
57325;SDS011;43161;50.950;18.224;2024-01-11T01:40:02;358.10;;;107.50;;
57325;SDS011;43161;50.950;18.224;2024-01-11T01:42:28;329.40;;;93.60;;
57325;SDS011;43161;50.950;18.224;2024-01-11T01:44:54;328.70;;;94.80;;
57325;SDS011;43161;50.950;18.224;2024-01-11T01:47:19;364.30;;;111.30;;
57325;SDS011;43161;50.950;18.224;2024-01-11T01:49:46;343.40;;;110.20;;
57325;SDS011;43161;50.950;18.224;2024-01-11T01:52:14;367.10;;;114.90;;
57325;SDS011;43161;50.950;18.224;2024-01-11T01:54:40;331.00;;;95.00;;
57325;SDS011;43161;50.950;18.224;2024-01-11T01:57:05;373.70;;;116.10;;
57325;SDS011;43161;50.950;18.224;2024-01-11T01:59:33;351.80;;;115.50;;
57325;SDS011;43161;50.950;18.224;2024-01-11T02:01:58;296.10;;;82.00;;
57325;SDS011;43161;50.950;18.224;2024-01-11T02:04:25;320.20;;;85.70;;
57325;SDS011;43161;50.950;18.224;2024-01-11T02:06:50;260.30;;;74.30;;
57325;SDS011;43161;50.950;18.224;2024-01-11T02:09:17;325.50;;;91.40;;
57325;SDS011;43161;50.950;18.224;2024-01-11T02:11:43;379.10;;;113.10;;
57325;SDS011;43161;50.950;18.224;2024-01-11T02:14:10;354.50;;;103.10;;
57325;SDS011;43161;50.950;18.224;2024-01-11T02:16:36;366.70;;;115.70;;
57325;SDS011;43161;50.950;18.224;2024-01-11T02:19:03;381.40;;;124.00;;
57325;SDS011;43161;50.950;18.224;2024-01-11T02:21:30;388.80;;;127.60;;
57325;SDS011;43161;50.950;18.224;2024-01-11T02:24:00;373.90;;;117.80;;
57325;SDS011;43161;50.950;18.224;2024-01-11T02:26:29;383.70;;;135.50;;
57325;SDS011;43161;50.950;18.224;2024-01-11T02:28:55;402.90;;;160.80;;
57325;SDS011;43161;50.950;18.224;2024-01-11T02:31:20;393.70;;;138.20;;
57325;SDS011;43161;50.950;18.224;2024-01-11T02:33:47;390.60;;;135.50;;
57325;SDS011;43161;50.950;18.224;2024-01-11T02:36:13;404.20;;;138.20;;
57325;SDS011;43161;50.950;18.224;2024-01-11T02:38:39;414.40;;;143.10;;
57325;SDS011;43161;50.950;18.224;2024-01-11T02:41:07;395.20;;;133.80;;
57325;SDS011;43161;50.950;18.224;2024-01-11T02:43:33;402.60;;;135.60;;
57325;SDS011;43161;50.950;18.224;2024-01-11T02:46:01;395.50;;;137.20;;
57325;SDS011;43161;50.950;18.224;2024-01-11T02:48:28;392.20;;;130.40;;
57325;SDS011;43161;50.950;18.224;2024-01-11T02:50:54;391.60;;;128.90;;
57325;SDS011;43161;50.950;18.224;2024-01-11T02:53:21;406.20;;;133.00;;
57325;SDS011;43161;50.950;18.224;2024-01-11T02:55:46;397.10;;;138.30;;
57325;SDS011;43161;50.950;18.224;2024-01-11T02:58:11;409.90;;;152.60;;
57325;SDS011;43161;50.950;18.224;2024-01-11T03:00:37;393.50;;;132.60;;
57325;SDS011;43161;50.950;18.224;2024-01-11T03:03:03;367.40;;;117.60;;
57325;SDS011;43161;50.950;18.224;2024-01-11T03:05:28;369.20;;;108.90;;
57325;SDS011;43161;50.950;18.224;2024-01-11T03:07:55;393.90;;;127.20;;
57325;SDS011;43161;50.950;18.224;2024-01-11T03:10:20;372.60;;;103.00;;
57325;SDS011;43161;50.950;18.224;2024-01-11T03:12:46;366.70;;;112.30;;
57325;SDS011;43161;50.950;18.224;2024-01-11T03:15:14;399.90;;;126.40;;
57325;SDS011;43161;50.950;18.224;2024-01-11T03:17:40;405.10;;;137.20;;
57325;SDS011;43161;50.950;18.224;2024-01-11T03:20:06;405.90;;;148.10;;
57325;SDS011;43161;50.950;18.224;2024-01-11T03:22:33;398.40;;;135.30;;
57325;SDS011;43161;50.950;18.224;2024-01-11T03:24:58;405.00;;;124.90;;
57325;SDS011;43161;50.950;18.224;2024-01-11T03:27:24;397.10;;;126.60;;
57325;SDS011;43161;50.950;18.224;2024-01-11T03:29:50;400.20;;;130.00;;
57325;SDS011;43161;50.950;18.224;2024-01-11T03:32:15;390.90;;;121.50;;
57325;SDS011;43161;50.950;18.224;2024-01-11T03:34:41;370.30;;;108.50;;
57325;SDS011;43161;50.950;18.224;2024-01-11T03:37:07;401.90;;;125.80;;
57325;SDS011;43161;50.950;18.224;2024-01-11T03:39:33;375.60;;;116.30;;
57325;SDS011;43161;50.950;18.224;2024-01-11T03:41:59;407.90;;;130.20;;
57325;SDS011;43161;50.950;18.224;2024-01-11T03:44:24;379.50;;;120.20;;
57325;SDS011;43161;50.950;18.224;2024-01-11T03:46:50;395.30;;;126.80;;
57325;SDS011;43161;50.950;18.224;2024-01-11T03:49:16;374.00;;;116.20;;
57325;SDS011;43161;50.950;18.224;2024-01-11T03:51:42;392.50;;;132.90;;
57325;SDS011;43161;50.950;18.224;2024-01-11T03:54:08;384.90;;;120.80;;
57325;SDS011;43161;50.950;18.224;2024-01-11T03:56:36;390.20;;;117.80;;
57325;SDS011;43161;50.950;18.224;2024-01-11T03:59:04;359.40;;;109.90;;
57325;SDS011;43161;50.950;18.224;2024-01-11T04:01:31;376.90;;;113.20;;
57325;SDS011;43161;50.950;18.224;2024-01-11T04:03:57;371.80;;;110.90;;
57325;SDS011;43161;50.950;18.224;2024-01-11T04:06:22;403.60;;;132.10;;
57325;SDS011;43161;50.950;18.224;2024-01-11T04:08:50;401.90;;;143.30;;
57325;SDS011;43161;50.950;18.224;2024-01-11T04:11:16;397.00;;;131.40;;
57325;SDS011;43161;50.950;18.224;2024-01-11T04:13:42;409.00;;;121.50;;
57325;SDS011;43161;50.950;18.224;2024-01-11T04:16:08;383.80;;;118.40;;
57325;SDS011;43161;50.950;18.224;2024-01-11T04:18:34;396.10;;;130.90;;
57325;SDS011;43161;50.950;18.224;2024-01-11T04:20:59;408.40;;;142.80;;
57325;SDS011;43161;50.950;18.224;2024-01-11T04:23:25;446.70;;;159.60;;
57325;SDS011;43161;50.950;18.224;2024-01-11T04:25:50;399.30;;;132.50;;
57325;SDS011;43161;50.950;18.224;2024-01-11T04:28:19;403.60;;;140.50;;
57325;SDS011;43161;50.950;18.224;2024-01-11T04:30:44;397.80;;;132.60;;
57325;SDS011;43161;50.950;18.224;2024-01-11T04:33:10;418.60;;;129.30;;
57325;SDS011;43161;50.950;18.224;2024-01-11T04:35:36;390.40;;;120.60;;
57325;SDS011;43161;50.950;18.224;2024-01-11T04:38:02;379.90;;;118.60;;
57325;SDS011;43161;50.950;18.224;2024-01-11T04:40:28;392.30;;;129.70;;
57325;SDS011;43161;50.950;18.224;2024-01-11T04:42:53;409.10;;;148.30;;
57325;SDS011;43161;50.950;18.224;2024-01-11T04:45:19;663.00;;;285.70;;
57325;SDS011;43161;50.950;18.224;2024-01-11T04:47:44;724.10;;;320.60;;
57325;SDS011;43161;50.950;18.224;2024-01-11T04:50:10;742.20;;;308.90;;
57325;SDS011;43161;50.950;18.224;2024-01-11T04:52:36;459.40;;;162.10;;
57325;SDS011;43161;50.950;18.224;2024-01-11T04:55:01;407.80;;;130.30;;
57325;SDS011;43161;50.950;18.224;2024-01-11T04:57:27;620.00;;;219.60;;
57325;SDS011;43161;50.950;18.224;2024-01-11T04:59:53;457.40;;;155.90;;
57325;SDS011;43161;50.950;18.224;2024-01-11T05:02:22;1469.30;;;579.30;;
57325;SDS011;43161;50.950;18.224;2024-01-11T05:04:47;668.10;;;292.40;;
57325;SDS011;43161;50.950;18.224;2024-01-11T05:07:13;399.60;;;150.10;;
57325;SDS011;43161;50.950;18.224;2024-01-11T05:09:39;643.90;;;290.20;;
57325;SDS011;43161;50.950;18.224;2024-01-11T05:12:05;558.80;;;241.00;;
57325;SDS011;43161;50.950;18.224;2024-01-11T05:14:31;1099.30;;;486.80;;
57325;SDS011;43161;50.950;18.224;2024-01-11T05:16:57;1027.30;;;526.70;;
57325;SDS011;43161;50.950;18.224;2024-01-11T05:19:23;574.40;;;247.60;;
57325;SDS011;43161;50.950;18.224;2024-01-11T05:21:49;616.50;;;274.70;;
57325;SDS011;43161;50.950;18.224;2024-01-11T05:24:14;422.30;;;167.00;;
57325;SDS011;43161;50.950;18.224;2024-01-11T05:26:40;492.80;;;188.30;;
57325;SDS011;43161;50.950;18.224;2024-01-11T05:29:06;401.70;;;151.10;;
57325;SDS011;43161;50.950;18.224;2024-01-11T05:31:31;440.40;;;208.30;;
57325;SDS011;43161;50.950;18.224;2024-01-11T05:33:57;424.90;;;170.60;;
57325;SDS011;43161;50.950;18.224;2024-01-11T05:36:22;380.10;;;133.90;;
57325;SDS011;43161;50.950;18.224;2024-01-11T05:38:48;266.80;;;82.90;;
57325;SDS011;43161;50.950;18.224;2024-01-11T05:41:14;306.30;;;113.30;;
57325;SDS011;43161;50.950;18.224;2024-01-11T05:43:40;336.10;;;120.00;;
57325;SDS011;43161;50.950;18.224;2024-01-11T05:46:06;337.10;;;119.40;;
57325;SDS011;43161;50.950;18.224;2024-01-11T05:48:32;326.00;;;114.50;;
57325;SDS011;43161;50.950;18.224;2024-01-11T05:50:58;310.50;;;112.10;;
57325;SDS011;43161;50.950;18.224;2024-01-11T05:53:25;311.90;;;112.60;;
57325;SDS011;43161;50.950;18.224;2024-01-11T05:55:52;310.70;;;117.70;;
57325;SDS011;43161;50.950;18.224;2024-01-11T05:58:19;292.90;;;106.50;;
57325;SDS011;43161;50.950;18.224;2024-01-11T06:00:45;285.60;;;87.80;;
57325;SDS011;43161;50.950;18.224;2024-01-11T06:03:11;304.20;;;109.10;;
57325;SDS011;43161;50.950;18.224;2024-01-11T06:05:38;323.60;;;100.90;;
57325;SDS011;43161;50.950;18.224;2024-01-11T06:08:04;319.50;;;103.50;;
57325;SDS011;43161;50.950;18.224;2024-01-11T06:10:31;372.00;;;107.10;;
57325;SDS011;43161;50.950;18.224;2024-01-11T06:12:56;275.30;;;81.90;;
57325;SDS011;43161;50.950;18.224;2024-01-11T06:15:22;300.80;;;126.10;;
57325;SDS011;43161;50.950;18.224;2024-01-11T06:17:48;371.30;;;124.70;;
57325;SDS011;43161;50.950;18.224;2024-01-11T06:20:14;350.60;;;137.10;;
57325;SDS011;43161;50.950;18.224;2024-01-11T06:22:40;303.00;;;101.60;;
57325;SDS011;43161;50.950;18.224;2024-01-11T06:25:05;311.90;;;117.60;;
57325;SDS011;43161;50.950;18.224;2024-01-11T06:27:31;321.10;;;111.20;;
57325;SDS011;43161;50.950;18.224;2024-01-11T06:29:57;311.60;;;119.40;;
57325;SDS011;43161;50.950;18.224;2024-01-11T06:32:23;392.30;;;162.50;;
57325;SDS011;43161;50.950;18.224;2024-01-11T06:34:49;456.50;;;192.30;;
57325;SDS011;43161;50.950;18.224;2024-01-11T06:37:14;356.60;;;144.00;;
57325;SDS011;43161;50.950;18.224;2024-01-11T06:39:40;319.30;;;124.10;;
57325;SDS011;43161;50.950;18.224;2024-01-11T06:42:06;289.40;;;102.50;;
57325;SDS011;43161;50.950;18.224;2024-01-11T06:44:31;293.60;;;111.00;;
57325;SDS011;43161;50.950;18.224;2024-01-11T06:46:57;293.50;;;107.40;;
57325;SDS011;43161;50.950;18.224;2024-01-11T06:49:23;299.80;;;110.00;;
57325;SDS011;43161;50.950;18.224;2024-01-11T06:51:48;295.20;;;111.30;;
57325;SDS011;43161;50.950;18.224;2024-01-11T06:54:14;273.50;;;105.60;;
57325;SDS011;43161;50.950;18.224;2024-01-11T06:56:39;385.60;;;192.00;;
57325;SDS011;43161;50.950;18.224;2024-01-11T06:59:04;291.40;;;117.40;;
57325;SDS011;43161;50.950;18.224;2024-01-11T07:01:30;348.40;;;135.80;;
57325;SDS011;43161;50.950;18.224;2024-01-11T07:03:56;326.60;;;122.90;;
57325;SDS011;43161;50.950;18.224;2024-01-11T07:06:21;295.60;;;124.70;;
57325;SDS011;43161;50.950;18.224;2024-01-11T07:08:47;344.20;;;135.60;;
57325;SDS011;43161;50.950;18.224;2024-01-11T07:11:12;293.30;;;118.60;;
57325;SDS011;43161;50.950;18.224;2024-01-11T07:13:38;270.30;;;115.00;;
57325;SDS011;43161;50.950;18.224;2024-01-11T07:16:04;237.80;;;87.50;;
57325;SDS011;43161;50.950;18.224;2024-01-11T07:18:31;243.50;;;93.50;;
57325;SDS011;43161;50.950;18.224;2024-01-11T07:20:56;245.60;;;97.20;;
57325;SDS011;43161;50.950;18.224;2024-01-11T07:23:23;247.90;;;107.20;;
57325;SDS011;43161;50.950;18.224;2024-01-11T07:25:49;239.70;;;99.70;;
57325;SDS011;43161;50.950;18.224;2024-01-11T07:28:15;217.20;;;88.30;;
57325;SDS011;43161;50.950;18.224;2024-01-11T07:30:42;228.50;;;91.50;;
57325;SDS011;43161;50.950;18.224;2024-01-11T07:33:08;221.00;;;87.50;;
57325;SDS011;43161;50.950;18.224;2024-01-11T07:35:34;310.70;;;115.30;;
57325;SDS011;43161;50.950;18.224;2024-01-11T07:38:00;210.90;;;83.10;;
57325;SDS011;43161;50.950;18.224;2024-01-11T07:40:26;237.70;;;100.80;;
57325;SDS011;43161;50.950;18.224;2024-01-11T07:42:52;250.20;;;93.60;;
57325;SDS011;43161;50.950;18.224;2024-01-11T07:45:18;265.90;;;97.20;;
57325;SDS011;43161;50.950;18.224;2024-01-11T07:47:44;217.70;;;90.60;;
57325;SDS011;43161;50.950;18.224;2024-01-11T07:50:10;192.20;;;66.50;;
57325;SDS011;43161;50.950;18.224;2024-01-11T07:52:35;194.20;;;73.50;;
57325;SDS011;43161;50.950;18.224;2024-01-11T07:55:07;207.60;;;78.50;;
57325;SDS011;43161;50.950;18.224;2024-01-11T07:57:35;193.20;;;63.80;;
57325;SDS011;43161;50.950;18.224;2024-01-11T08:00:01;191.10;;;62.30;;
57325;SDS011;43161;50.950;18.224;2024-01-11T08:02:29;214.20;;;70.90;;
57325;SDS011;43161;50.950;18.224;2024-01-11T08:04:55;186.50;;;75.60;;
57325;SDS011;43161;50.950;18.224;2024-01-11T08:07:21;226.30;;;66.80;;
57325;SDS011;43161;50.950;18.224;2024-01-11T08:09:47;214.60;;;63.80;;
57325;SDS011;43161;50.950;18.224;2024-01-11T08:12:13;186.40;;;59.80;;
57325;SDS011;43161;50.950;18.224;2024-01-11T08:14:40;169.40;;;61.20;;
57325;SDS011;43161;50.950;18.224;2024-01-11T08:17:07;191.10;;;66.80;;
57325;SDS011;43161;50.950;18.224;2024-01-11T08:19:34;199.80;;;59.20;;
57325;SDS011;43161;50.950;18.224;2024-01-11T08:22:00;193.50;;;63.70;;
57325;SDS011;43161;50.950;18.224;2024-01-11T08:24:26;244.60;;;66.80;;
57325;SDS011;43161;50.950;18.224;2024-01-11T08:26:52;208.60;;;69.50;;
57325;SDS011;43161;50.950;18.224;2024-01-11T08:29:17;153.90;;;50.40;;
57325;SDS011;43161;50.950;18.224;2024-01-11T08:31:45;182.40;;;60.70;;
57325;SDS011;43161;50.950;18.224;2024-01-11T08:34:11;194.00;;;56.20;;
57325;SDS011;43161;50.950;18.224;2024-01-11T08:36:37;183.80;;;59.90;;
57325;SDS011;43161;50.950;18.224;2024-01-11T08:39:07;178.30;;;59.90;;
57325;SDS011;43161;50.950;18.224;2024-01-11T08:41:37;234.80;;;76.80;;
57325;SDS011;43161;50.950;18.224;2024-01-11T08:44:03;157.70;;;56.50;;
57325;SDS011;43161;50.950;18.224;2024-01-11T08:46:33;227.90;;;65.90;;
57325;SDS011;43161;50.950;18.224;2024-01-11T08:48:59;194.30;;;65.50;;
57325;SDS011;43161;50.950;18.224;2024-01-11T08:51:26;194.10;;;66.70;;
57325;SDS011;43161;50.950;18.224;2024-01-11T08:53:52;156.20;;;60.70;;
57325;SDS011;43161;50.950;18.224;2024-01-11T08:56:18;148.60;;;51.90;;
57325;SDS011;43161;50.950;18.224;2024-01-11T08:58:44;153.90;;;55.20;;
57325;SDS011;43161;50.950;18.224;2024-01-11T09:01:10;131.70;;;46.70;;
57325;SDS011;43161;50.950;18.224;2024-01-11T09:03:36;154.90;;;55.60;;
57325;SDS011;43161;50.950;18.224;2024-01-11T09:06:02;129.70;;;46.80;;
57325;SDS011;43161;50.950;18.224;2024-01-11T09:08:29;134.50;;;46.50;;
57325;SDS011;43161;50.950;18.224;2024-01-11T09:10:58;148.40;;;51.20;;
57325;SDS011;43161;50.950;18.224;2024-01-11T09:13:24;235.70;;;65.70;;
57325;SDS011;43161;50.950;18.224;2024-01-11T09:15:51;264.90;;;70.50;;
57325;SDS011;43161;50.950;18.224;2024-01-11T09:18:18;272.50;;;72.80;;
57325;SDS011;43161;50.950;18.224;2024-01-11T09:20:43;170.90;;;50.90;;
57325;SDS011;43161;50.950;18.224;2024-01-11T09:23:09;385.00;;;98.40;;
57325;SDS011;43161;50.950;18.224;2024-01-11T09:25:35;253.90;;;73.00;;
57325;SDS011;43161;50.950;18.224;2024-01-11T09:28:00;347.30;;;94.20;;
57325;SDS011;43161;50.950;18.224;2024-01-11T09:30:26;219.50;;;56.50;;
57325;SDS011;43161;50.950;18.224;2024-01-11T09:32:52;154.70;;;48.00;;
57325;SDS011;43161;50.950;18.224;2024-01-11T09:35:18;234.50;;;57.00;;
57325;SDS011;43161;50.950;18.224;2024-01-11T09:37:44;168.80;;;47.80;;
57325;SDS011;43161;50.950;18.224;2024-01-11T09:40:11;251.40;;;67.10;;
57325;SDS011;43161;50.950;18.224;2024-01-11T09:42:38;131.60;;;44.00;;
57325;SDS011;43161;50.950;18.224;2024-01-11T09:45:08;105.30;;;39.90;;
57325;SDS011;43161;50.950;18.224;2024-01-11T09:47:36;415.70;;;124.60;;
57325;SDS011;43161;50.950;18.224;2024-01-11T09:50:05;509.10;;;137.50;;
57325;SDS011;43161;50.950;18.224;2024-01-11T09:52:31;358.80;;;95.30;;
57325;SDS011;43161;50.950;18.224;2024-01-11T09:54:57;450.00;;;127.60;;
57325;SDS011;43161;50.950;18.224;2024-01-11T09:57:24;251.00;;;81.20;;
57325;SDS011;43161;50.950;18.224;2024-01-11T09:59:56;369.00;;;116.40;;
57325;SDS011;43161;50.950;18.224;2024-01-11T10:02:23;148.70;;;62.00;;
57325;SDS011;43161;50.950;18.224;2024-01-11T10:04:49;121.40;;;46.30;;
57325;SDS011;43161;50.950;18.224;2024-01-11T10:07:18;109.00;;;44.60;;
57325;SDS011;43161;50.950;18.224;2024-01-11T10:09:46;83.60;;;28.30;;
57325;SDS011;43161;50.950;18.224;2024-01-11T10:12:12;86.50;;;33.30;;
57325;SDS011;43161;50.950;18.224;2024-01-11T10:14:38;85.00;;;31.30;;
57325;SDS011;43161;50.950;18.224;2024-01-11T10:17:04;76.70;;;28.90;;
57325;SDS011;43161;50.950;18.224;2024-01-11T10:19:31;89.00;;;34.20;;
57325;SDS011;43161;50.950;18.224;2024-01-11T10:21:57;72.70;;;28.40;;
57325;SDS011;43161;50.950;18.224;2024-01-11T10:24:23;71.80;;;30.50;;
57325;SDS011;43161;50.950;18.224;2024-01-11T10:26:57;101.00;;;43.10;;
57325;SDS011;43161;50.950;18.224;2024-01-11T10:29:31;63.30;;;27.40;;
57325;SDS011;43161;50.950;18.224;2024-01-11T10:31:58;64.90;;;27.40;;
57325;SDS011;43161;50.950;18.224;2024-01-11T10:34:23;69.40;;;27.30;;
57325;SDS011;43161;50.950;18.224;2024-01-11T10:36:52;65.30;;;27.70;;
57325;SDS011;43161;50.950;18.224;2024-01-11T10:39:18;68.10;;;26.20;;
57325;SDS011;43161;50.950;18.224;2024-01-11T10:41:51;68.50;;;26.70;;
57325;SDS011;43161;50.950;18.224;2024-01-11T10:44:19;88.40;;;33.00;;
57325;SDS011;43161;50.950;18.224;2024-01-11T10:46:47;82.60;;;30.30;;
57325;SDS011;43161;50.950;18.224;2024-01-11T10:49:17;67.50;;;28.50;;
57325;SDS011;43161;50.950;18.224;2024-01-11T10:54:28;77.00;;;29.40;;
57325;SDS011;43161;50.950;18.224;2024-01-11T10:56:56;81.60;;;31.60;;
57325;SDS011;43161;50.950;18.224;2024-01-11T10:59:25;82.80;;;29.90;;
57325;SDS011;43161;50.950;18.224;2024-01-11T11:01:52;77.00;;;27.80;;
57325;SDS011;43161;50.950;18.224;2024-01-11T11:04:19;69.10;;;26.80;;
57325;SDS011;43161;50.950;18.224;2024-01-11T11:06:46;69.70;;;27.00;;
57325;SDS011;43161;50.950;18.224;2024-01-11T11:09:12;80.60;;;31.50;;
57325;SDS011;43161;50.950;18.224;2024-01-11T11:11:39;76.70;;;30.00;;
57325;SDS011;43161;50.950;18.224;2024-01-11T11:14:05;63.20;;;27.90;;
57325;SDS011;43161;50.950;18.224;2024-01-11T11:16:31;67.90;;;28.00;;
57325;SDS011;43161;50.950;18.224;2024-01-11T11:18:56;74.50;;;30.90;;
57325;SDS011;43161;50.950;18.224;2024-01-11T11:21:22;72.40;;;28.50;;
57325;SDS011;43161;50.950;18.224;2024-01-11T11:23:50;71.80;;;29.70;;
57325;SDS011;43161;50.950;18.224;2024-01-11T11:26:16;65.10;;;26.50;;
57325;SDS011;43161;50.950;18.224;2024-01-11T11:28:42;70.80;;;27.80;;
57325;SDS011;43161;50.950;18.224;2024-01-11T11:31:08;68.50;;;26.70;;
57325;SDS011;43161;50.950;18.224;2024-01-11T11:33:37;67.90;;;25.30;;
57325;SDS011;43161;50.950;18.224;2024-01-11T11:36:02;87.80;;;34.10;;
57325;SDS011;43161;50.950;18.224;2024-01-11T11:38:30;84.30;;;31.30;;
57325;SDS011;43161;50.950;18.224;2024-01-11T11:40:57;155.30;;;55.00;;
57325;SDS011;43161;50.950;18.224;2024-01-11T11:43:24;117.10;;;41.50;;
57325;SDS011;43161;50.950;18.224;2024-01-11T11:45:51;100.10;;;38.50;;
57325;SDS011;43161;50.950;18.224;2024-01-11T11:51:10;72.90;;;27.60;;
57325;SDS011;43161;50.950;18.224;2024-01-11T11:53:37;95.00;;;37.20;;
57325;SDS011;43161;50.950;18.224;2024-01-11T11:56:06;80.40;;;31.70;;
57325;SDS011;43161;50.950;18.224;2024-01-11T11:58:34;65.20;;;24.30;;
57325;SDS011;43161;50.950;18.224;2024-01-11T12:01:01;103.70;;;40.50;;
57325;SDS011;43161;50.950;18.224;2024-01-11T12:05:57;153.50;;;55.20;;
57325;SDS011;43161;50.950;18.224;2024-01-11T12:08:24;119.60;;;40.80;;
57325;SDS011;43161;50.950;18.224;2024-01-11T12:10:49;97.70;;;40.50;;
57325;SDS011;43161;50.950;18.224;2024-01-11T12:13:16;62.60;;;26.10;;
57325;SDS011;43161;50.950;18.224;2024-01-11T12:15:42;74.30;;;29.40;;
57325;SDS011;43161;50.950;18.224;2024-01-11T12:18:08;67.00;;;28.30;;
57325;SDS011;43161;50.950;18.224;2024-01-11T12:20:33;63.50;;;25.50;;
57325;SDS011;43161;50.950;18.224;2024-01-11T12:22:59;85.70;;;33.70;;
57325;SDS011;43161;50.950;18.224;2024-01-11T12:25:25;55.20;;;22.00;;
57325;SDS011;43161;50.950;18.224;2024-01-11T12:27:51;76.80;;;30.00;;
57325;SDS011;43161;50.950;18.224;2024-01-11T12:30:17;95.60;;;33.50;;
57325;SDS011;43161;50.950;18.224;2024-01-11T12:32:45;64.00;;;24.40;;
57325;SDS011;43161;50.950;18.224;2024-01-11T12:35:11;73.40;;;26.40;;
57325;SDS011;43161;50.950;18.224;2024-01-11T12:37:37;66.20;;;24.10;;
57325;SDS011;43161;50.950;18.224;2024-01-11T12:40:02;91.90;;;32.30;;
57325;SDS011;43161;50.950;18.224;2024-01-11T12:42:29;96.80;;;36.10;;
57325;SDS011;43161;50.950;18.224;2024-01-11T12:44:55;74.70;;;27.50;;
57325;SDS011;43161;50.950;18.224;2024-01-11T12:47:20;58.90;;;26.20;;
57325;SDS011;43161;50.950;18.224;2024-01-11T12:49:47;60.80;;;24.10;;
57325;SDS011;43161;50.950;18.224;2024-01-11T12:52:16;92.60;;;36.00;;
57325;SDS011;43161;50.950;18.224;2024-01-11T12:54:43;62.70;;;23.40;;
57325;SDS011;43161;50.950;18.224;2024-01-11T12:57:18;52.80;;;22.40;;
57325;SDS011;43161;50.950;18.224;2024-01-11T12:59:48;53.40;;;21.20;;
57325;SDS011;43161;50.950;18.224;2024-01-11T13:02:14;62.00;;;24.30;;
57325;SDS011;43161;50.950;18.224;2024-01-11T13:04:44;59.00;;;23.50;;
57325;SDS011;43161;50.950;18.224;2024-01-11T13:07:12;60.90;;;23.30;;
57325;SDS011;43161;50.950;18.224;2024-01-11T13:09:38;56.80;;;21.70;;
57325;SDS011;43161;50.950;18.224;2024-01-11T13:12:04;54.90;;;21.90;;
57325;SDS011;43161;50.950;18.224;2024-01-11T13:14:30;58.40;;;23.10;;
57325;SDS011;43161;50.950;18.224;2024-01-11T13:16:57;68.10;;;26.00;;
57325;SDS011;43161;50.950;18.224;2024-01-11T13:19:22;61.40;;;23.70;;
57325;SDS011;43161;50.950;18.224;2024-01-11T13:21:48;53.90;;;23.10;;
57325;SDS011;43161;50.950;18.224;2024-01-11T13:24:14;62.40;;;24.40;;
57325;SDS011;43161;50.950;18.224;2024-01-11T13:26:40;56.00;;;22.30;;
57325;SDS011;43161;50.950;18.224;2024-01-11T13:29:06;61.30;;;23.60;;
57325;SDS011;43161;50.950;18.224;2024-01-11T13:31:32;66.50;;;24.00;;
57325;SDS011;43161;50.950;18.224;2024-01-11T13:33:58;51.80;;;20.10;;
57325;SDS011;43161;50.950;18.224;2024-01-11T13:36:24;50.10;;;20.40;;
57325;SDS011;43161;50.950;18.224;2024-01-11T13:38:50;54.00;;;21.70;;
57325;SDS011;43161;50.950;18.224;2024-01-11T13:41:16;51.70;;;21.90;;
57325;SDS011;43161;50.950;18.224;2024-01-11T13:43:45;49.20;;;20.10;;
57325;SDS011;43161;50.950;18.224;2024-01-11T13:46:11;50.50;;;19.40;;
57325;SDS011;43161;50.950;18.224;2024-01-11T13:48:39;51.30;;;19.30;;
57325;SDS011;43161;50.950;18.224;2024-01-11T13:51:05;63.80;;;23.70;;
57325;SDS011;43161;50.950;18.224;2024-01-11T13:53:30;50.00;;;18.40;;
57325;SDS011;43161;50.950;18.224;2024-01-11T13:55:56;60.00;;;22.10;;